Station Historical Data
Daily Summary for September 16, 2019 Units:  Metric    English   Both
« Previous Day
Next Day »
Daily Weekly Monthly Yearly Custom
  High: Low: Average:
Temperature: 25.3 °C 16.4 °C 20.2 °C
Dew Point: 21.4 °C 15.9 °C 18.4 °C
Humidity: 100% 72% 90%
Wind Speed: 6.4km/h 0km/h 0km/h
Wind Gust: 19.3km/h - -
Wind- - NW
Pressure: 1018.5 hPa 1015.1 hPa -
Precipitation: 0 mm    
Historical Graphs
 
 
Tabular Data for September 16, 2019
Time Temperature Dew Point Pressure Wind Wind Speed Wind Gust Humidity Rainfall Rate (Hourly) solar Conditions
00:00 17.1 °C 16.4 °C 1018.2 hPa Calm     96% 0 mm WeatherDisplay:10.37 W/m2 RA
00:05 17.1 °C 16.4 °C 1018.2 hPa Calm     96% 0 mm WeatherDisplay:10.37 W/m2 CLR
00:10 17.2 °C 16.5 °C 1018.2 hPa Calm     96% 0 mm WeatherDisplay:10.37 W/m2 CLR
00:15 17.2 °C 16.5 °C 1018.2 hPa Calm     96% 0 mm WeatherDisplay:10.37 W/m2 CLR
00:20 17.2 °C 16.5 °C 1018.2 hPa Calm     96% 0 mm WeatherDisplay:10.37 W/m2 CLR
00:25 17.2 °C 16.6 °C 1018.2 hPa Calm     96% 0 mm WeatherDisplay:10.37 W/m2 CLR
00:30 17.2 °C 16.6 °C 1018.2 hPa Calm     96% 0 mm WeatherDisplay:10.37 W/m2 CLR
00:35 17.3 °C 16.6 °C 1018.2 hPa Calm     96% 0 mm WeatherDisplay:10.37 W/m2 CLR
00:40 17.3 °C 16.6 °C 1018.5 hPa Calm     96% 0 mm WeatherDisplay:10.37 W/m2 CLR
00:45 17.3 °C 16.6 °C 1018.5 hPa Calm     96% 0 mm WeatherDisplay:10.37 W/m2 CLR
00:50 17.2 °C 16.6 °C 1018.5 hPa Calm     96% 0 mm WeatherDisplay:10.37 W/m2 CLR
00:55 17.2 °C 16.5 °C 1018.5 hPa Calm     96% 0 mm WeatherDisplay:10.37 W/m2 CLR
01:00 17.1 °C 16.4 °C 1018.5 hPa Calm     96% 0 mm WeatherDisplay:10.37 W/m2 CLR
01:05 17.1 °C 16.4 °C 1018.5 hPa Calm     96% 0 mm WeatherDisplay:10.37 W/m2 CLR
01:10 17 °C 16.5 °C 1018.5 hPa Calm     97% 0 mm WeatherDisplay:10.37 W/m2 CLR
01:15 16.9 °C 16.4 °C 1018.5 hPa Calm     97% 0 mm WeatherDisplay:10.37 W/m2 CLR
01:20 16.8 °C 16.2 °C 1018.2 hPa Calm     96% 0 mm WeatherDisplay:10.37 W/m2 CLR
01:25 16.8 °C 16.3 °C 1018.5 hPa Calm     97% 0 mm WeatherDisplay:10.37 W/m2 CLR
01:30 16.7 °C 16.2 °C 1018.2 hPa Calm     97% 0 mm WeatherDisplay:10.37 W/m2 CLR
01:35 16.7 °C 16.2 °C 1018.2 hPa Calm     97% 0 mm WeatherDisplay:10.37 W/m2 CLR
01:40 16.6 °C 16.1 °C 1018.2 hPa Calm     97% 0 mm WeatherDisplay:10.37 W/m2 CLR
01:45 16.6 °C 16.1 °C 1018.2 hPa Calm     97% 0 mm WeatherDisplay:10.37 W/m2 CLR
01:50 16.4 °C 15.9 °C 1018.2 hPa Calm     97% 0 mm WeatherDisplay:10.37 W/m2 CLR
01:55 16.4 °C 15.9 °C 1018.2 hPa Calm     97% 0 mm WeatherDisplay:10.37 W/m2 CLR
02:00 16.4 °C 16.1 °C 1018.2 hPa Calm     98% 0 mm WeatherDisplay:10.37 W/m2 CLR
02:05 16.4 °C 16.1 °C 1018.2 hPa Calm     98% 0 mm WeatherDisplay:10.37 W/m2 CLR
02:10 16.4 °C 16.1 °C 1018.2 hPa Calm     98% 0 mm WeatherDisplay:10.37 W/m2 CLR
02:15 16.4 °C 16.1 °C 1018.2 hPa Calm     98% 0 mm WeatherDisplay:10.37 W/m2 CLR
02:20 16.5 °C 16.2 °C 1018.2 hPa Calm     98% 0 mm WeatherDisplay:10.37 W/m2 CLR
02:25 16.5 °C 16.2 °C 1018.2 hPa Calm     98% 0 mm WeatherDisplay:10.37 W/m2 CLR
02:30 16.6 °C 16.2 °C 1017.8 hPa Calm     98% 0 mm WeatherDisplay:10.37 W/m2 CLR
02:35 16.6 °C 16.4 °C 1017.8 hPa Calm     99% 0 mm WeatherDisplay:10.37 W/m2 CLR
02:40 16.7 °C 16.5 °C 1017.8 hPa Calm     99% 0 mm WeatherDisplay:10.37 W/m2 CLR
02:45 16.7 °C 16.6 °C 1017.8 hPa Calm     99% 0 mm WeatherDisplay:10.37 W/m2 CLR
02:50 16.8 °C 16.7 °C 1017.8 hPa Calm     99% 0 mm WeatherDisplay:10.37 W/m2 CLR
02:55 16.8 °C 16.7 °C 1017.8 hPa Calm     99% 0 mm WeatherDisplay:10.37 W/m2 CLR
03:00 16.9 °C 16.7 °C 1017.8 hPa Calm     99% 0 mm WeatherDisplay:10.37 W/m2 CLR
03:05 16.9 °C 16.7 °C 1017.8 hPa Calm     99% 0 mm WeatherDisplay:10.37 W/m2 CLR
03:10 16.9 °C 16.8 °C 1017.8 hPa Calm     99% 0 mm WeatherDisplay:10.37 W/m2 CLR
03:15 16.9 °C 16.8 °C 1017.8 hPa Calm     99% 0 mm WeatherDisplay:10.37 W/m2 CLR
03:20 16.9 °C 16.8 °C 1017.8 hPa Calm     99% 0 mm WeatherDisplay:10.37 W/m2 CLR
03:25 17 °C 16.8 °C 1017.8 hPa Calm     99% 0 mm WeatherDisplay:10.37 W/m2 CLR
03:30 17 °C 16.8 °C 1017.8 hPa Calm     99% 0 mm WeatherDisplay:10.37 W/m2 CLR
03:35 17.1 °C 16.9 °C 1017.8 hPa Calm     99% 0 mm WeatherDisplay:10.37 W/m2 CLR
03:40 17.1 °C 16.9 °C 1017.8 hPa Calm     99% 0 mm WeatherDisplay:10.37 W/m2 CLR
03:45 17.1 °C 16.9 °C 1017.8 hPa Calm     99% 0 mm WeatherDisplay:10.37 W/m2 CLR
03:50 17.1 °C 16.9 °C 1018.2 hPa Calm     99% 0 mm WeatherDisplay:10.37 W/m2 CLR
03:55 17.1 °C 16.9 °C 1018.2 hPa Calm     99% 0 mm WeatherDisplay:10.37 W/m2 CLR
04:00 17.1 °C 16.9 °C 1018.2 hPa Calm     99% 0 mm WeatherDisplay:10.37 W/m2 CLR
04:05 17.2 °C 17 °C 1018.2 hPa Calm     99% 0 mm WeatherDisplay:10.37 W/m2 CLR
04:10 17.2 °C 17 °C 1018.2 hPa Calm     99% 0 mm WeatherDisplay:10.37 W/m2 CLR
04:15 17.2 °C 17 °C 1017.8 hPa Calm     99% 0 mm WeatherDisplay:10.37 W/m2 CLR
04:20 17.2 °C 17 °C 1017.8 hPa Calm     99% 0 mm WeatherDisplay:10.37 W/m2 CLR
04:25 17.2 °C 17 °C 1017.8 hPa Calm     99% 0 mm WeatherDisplay:10.37 W/m2 CLR
04:30 17.2 °C 17.1 °C 1017.8 hPa Calm     99% 0 mm WeatherDisplay:10.37 W/m2 CLR
04:35 17.2 °C 17.1 °C 1017.8 hPa Calm     99% 0 mm WeatherDisplay:10.37 W/m2 CLR
04:40 17.2 °C 17.1 °C 1017.8 hPa Calm     99% 0 mm WeatherDisplay:10.37 W/m2 CLR
04:45 17.2 °C 17.1 °C 1017.8 hPa Calm     99% 0 mm WeatherDisplay:10.37 W/m2 CLR
04:50 17.2 °C 17 °C 1017.8 hPa Calm     99% 0 mm WeatherDisplay:10.37 W/m2 CLR
04:55 17.2 °C 17 °C 1017.8 hPa Calm     99% 0 mm WeatherDisplay:10.37 W/m2 CLR
05:00 17.2 °C 17 °C 1017.8 hPa Calm     99% 0 mm WeatherDisplay:10.37 W/m2 CLR
05:05 17.2 °C 17 °C 1017.8 hPa Calm     99% 0 mm WeatherDisplay:10.37 W/m2 CLR
05:10 17.2 °C 17 °C 1017.8 hPa Calm     99% 0 mm WeatherDisplay:10.37 W/m2 CLR
05:15 17.2 °C 17.1 °C 1017.8 hPa Calm     99% 0 mm WeatherDisplay:10.37 W/m2 CLR
05:20 17.2 °C 17 °C 1017.8 hPa Calm     99% 0 mm WeatherDisplay:10.37 W/m2 CLR
05:25 17.2 °C 17.1 °C 1017.8 hPa Calm     99% 0 mm WeatherDisplay:10.37 W/m2 CLR
05:30 17.2 °C 17.1 °C 1018.2 hPa Calm     99% 0 mm WeatherDisplay:10.37 W/m2 CLR
05:35 17.3 °C 17.1 °C 1018.2 hPa Calm     99% 0 mm WeatherDisplay:10.37 W/m2 CLR
05:40 17.3 °C 17.1 °C 1018.2 hPa Calm     99% 0 mm WeatherDisplay:10.37 W/m2 CLR
05:45 17.3 °C 17.1 °C 1017.8 hPa Calm     99% 0 mm WeatherDisplay:10.37 W/m2 CLR
05:50 17.3 °C 17.1 °C 1017.8 hPa Calm     99% 0 mm WeatherDisplay:10.37 W/m2 CLR
05:55 17.3 °C 17.1 °C 1017.8 hPa Calm     99% 0 mm WeatherDisplay:10.37 W/m2 CLR
06:00 17.3 °C 17.1 °C 1017.8 hPa Calm     99% 0 mm WeatherDisplay:10.37 W/m2 CLR
06:05 17.2 °C 17.1 °C 1017.8 hPa Calm     99% 0 mm WeatherDisplay:10.37 W/m2 CLR
06:10 17.2 °C 17 °C 1017.8 hPa Calm     99% 0 mm WeatherDisplay:10.37 W/m2 CLR
06:15 17.2 °C 17 °C 1018.2 hPa Calm     99% 0 mm WeatherDisplay:10.37 W/m2 CLR
06:20 17.2 °C 17 °C 1017.8 hPa Calm     99% 0 mm WeatherDisplay:10.37 W/m2 CLR
06:25 17.2 °C 17 °C 1018.2 hPa Calm     99% 0 mm WeatherDisplay:10.37 W/m2 CLR
06:30 17.2 °C 17 °C 1018.2 hPa Calm     99% 0 mm WeatherDisplay:10.37 W/m2 CLR
06:35 17.2 °C 17 °C 1018.2 hPa Calm     99% 0 mm WeatherDisplay:10.37 W/m2 CLR
06:40 17.2 °C 17.1 °C 1018.2 hPa Calm     99% 0 mm WeatherDisplay:10.37 W/m2 CLR
06:45 17.2 °C 17.2 °C 1017.8 hPa Calm     100% 0 mm WeatherDisplay:10.37 W/m2 CLR
06:50 17.2 °C 17.2 °C 1017.8 hPa Calm     100% 0 mm WeatherDisplay:10.37 W/m2 CLR
06:55 17.2 °C 17.1 °C 1017.8 hPa Calm     99% 0 mm WeatherDisplay:10.37 W/m2 CLR
07:00 17.2 °C 17.2 °C 1017.8 hPa Calm     100% 0 mm WeatherDisplay:10.37 W/m2 CLR
07:05 17.3 °C 17.1 °C 1017.8 hPa Calm     99% 0 mm WeatherDisplay:10.37 W/m2 CLR
07:10 17.3 °C 17.3 °C 1017.8 hPa Calm     100% 0 mm WeatherDisplay:10.37 W/m2 CLR
07:15 17.4 °C 17.4 °C 1017.8 hPa Calm     100% 0 mm WeatherDisplay:10.37 W/m2 CLR
07:20 17.3 °C 17.3 °C 1018.2 hPa Calm     100% 0 mm WeatherDisplay:10.37 W/m2 CLR
07:25 17.3 °C 17.3 °C 1017.8 hPa Calm     100% 0 mm WeatherDisplay:10.37 W/m2 CLR
07:30 17.4 °C 17.4 °C 1017.8 hPa Calm     100% 0 mm WeatherDisplay:10.37 W/m2 CLR
07:35 17.4 °C 17.4 °C 1018.2 hPa Calm     100% 0 mm WeatherDisplay:10.37 W/m2 CLR
07:40 17.6 °C 17.6 °C 1018.2 hPa Calm     100% 0 mm WeatherDisplay:10.37 W/m2 CLR
07:45 17.6 °C 17.6 °C 1017.8 hPa Calm     100% 0 mm WeatherDisplay:10.37 W/m2 CLR
07:50 17.6 °C 17.6 °C 1017.8 hPa Calm     100% 0 mm WeatherDisplay:10.37 W/m2 CLR
07:55 17.6 °C 17.6 °C 1017.8 hPa Calm     100% 0 mm WeatherDisplay:10.37 W/m2 CLR
08:00 17.6 °C 17.6 °C 1017.8 hPa Calm     100% 0 mm WeatherDisplay:10.37 W/m2 CLR
08:05 17.7 °C 17.7 °C 1017.8 hPa Calm     100% 0 mm WeatherDisplay:10.37 W/m2 CLR
08:10 17.7 °C 17.7 °C 1017.8 hPa Calm     100% 0 mm WeatherDisplay:10.37 W/m2 CLR
08:15 17.8 °C 17.7 °C 1017.8 hPa Calm     99% 0 mm WeatherDisplay:10.37 W/m2 CLR
08:20 17.9 °C 17.8 °C 1017.8 hPa Calm     99% 0 mm WeatherDisplay:10.37 W/m2 CLR
08:25 18.2 °C 18 °C 1017.5 hPa Calm     99% 0 mm WeatherDisplay:10.37 W/m2 CLR
08:30 18.3 °C 18.1 °C 1017.8 hPa Calm     99% 0 mm WeatherDisplay:10.37 W/m2 CLR
08:35 18.4 °C 18.1 °C 1017.8 hPa Calm     98% 0 mm WeatherDisplay:10.37 W/m2 CLR
08:40 18.6 °C 18.1 °C 1017.8 hPa Calm     97% 0 mm WeatherDisplay:10.37 W/m2 CLR
08:45 18.7 °C 18.2 °C 1017.8 hPa Calm     97% 0 mm WeatherDisplay:10.37 W/m2 CLR
08:50 18.8 °C 18.2 °C 1017.8 hPa Calm     96% 0 mm WeatherDisplay:10.37 W/m2 CLR
08:55 19 °C 18.3 °C 1017.8 hPa Calm     96% 0 mm WeatherDisplay:10.37 W/m2 CLR
09:00 19.1 °C 18.2 °C 1017.8 hPa Calm     95% 0 mm WeatherDisplay:10.37 W/m2 CLR
09:05 19.2 °C 18.3 °C 1017.8 hPa Calm     95% 0 mm WeatherDisplay:10.37 W/m2 CLR
09:10 19.3 °C 18.3 °C 1017.8 hPa Calm     94% 0 mm WeatherDisplay:10.37 W/m2 CLR
09:15 19.4 °C 18.4 °C 1017.8 hPa Calm     94% 0 mm WeatherDisplay:10.37 W/m2 CLR
09:20 19.4 °C 18.4 °C 1017.8 hPa Calm     94% 0 mm WeatherDisplay:10.37 W/m2 CLR
09:25 19.5 °C 18.5 °C 1017.8 hPa Calm     94% 0 mm WeatherDisplay:10.37 W/m2 CLR
09:30 19.6 °C 18.6 °C 1017.8 hPa Calm     94% 0 mm WeatherDisplay:10.37 W/m2 CLR
09:35 19.7 °C 18.7 °C 1017.8 hPa Calm     94% 0 mm WeatherDisplay:10.37 W/m2 CLR
09:40 19.8 °C 18.6 °C 1017.8 hPa Calm     93% 0 mm WeatherDisplay:10.37 W/m2 CLR
09:45 19.9 °C 18.6 °C 1017.8 hPa Calm     92% 0 mm WeatherDisplay:10.37 W/m2 CLR
09:50 19.9 °C 18.6 °C 1017.8 hPa Calm     92% 0 mm WeatherDisplay:10.37 W/m2 CLR
09:55 20.1 °C 18.6 °C 1017.8 hPa Calm     91% 0 mm WeatherDisplay:10.37 W/m2 CLR
10:00 20.2 °C 18.7 °C 1017.8 hPa Calm     91% 0 mm WeatherDisplay:10.37 W/m2 CLR
10:05 20.2 °C 18.7 °C 1017.8 hPa Calm     91% 0 mm WeatherDisplay:10.37 W/m2 CLR
10:10 20.3 °C 18.8 °C 1017.8 hPa Calm     91% 0 mm WeatherDisplay:10.37 W/m2 CLR
10:15 20.4 °C 18.7 °C 1017.8 hPa Calm     90% 0 mm WeatherDisplay:10.37 W/m2 CLR
10:20 20.5 °C 18.8 °C 1017.8 hPa Calm     90% 0 mm WeatherDisplay:10.37 W/m2 CLR
10:25 20.6 °C 19.1 °C 1018.2 hPa Calm     91% 0 mm WeatherDisplay:10.37 W/m2 CLR
10:30 20.7 °C 18.9 °C 1017.8 hPa Calm     90% 0 mm WeatherDisplay:10.37 W/m2 CLR
10:35 20.7 °C 19 °C 1017.8 hPa Calm     90% 0 mm WeatherDisplay:10.37 W/m2 CLR
10:40 20.8 °C 19.3 °C 1017.5 hPa Calm     91% 0 mm WeatherDisplay:10.37 W/m2 CLR
10:45 20.8 °C 19.1 °C 1017.5 hPa Calm     90% 0 mm WeatherDisplay:10.37 W/m2 CLR
10:50 20.8 °C 19.1 °C 1017.5 hPa Calm     90% 0 mm WeatherDisplay:10.37 W/m2 CLR
10:55 20.9 °C 19.1 °C 1017.5 hPa Calm     89% 0 mm WeatherDisplay:10.37 W/m2 CLR
11:00 21.2 °C 19.2 °C 1017.5 hPa Calm     88% 0 mm WeatherDisplay:10.37 W/m2 CLR
11:05 21.3 °C 18.9 °C 1017.5 hPa Calm     86% 0 mm WeatherDisplay:10.37 W/m2 CLR
11:10 21.5 °C 19.2 °C 1017.5 hPa NNW 1.9 km/h 0.3 km/h 87% 0 mm WeatherDisplay:10.37 W/m2 CLR
11:15 21.6 °C 19 °C 1017.5 hPa NNW 1.9 km/h 0.2 km/h 85% 0 mm WeatherDisplay:10.37 W/m2 CLR
11:20 21.8 °C 18.8 °C 1017.5 hPa Calm     83% 0 mm WeatherDisplay:10.37 W/m2 CLR
11:25 22 °C 18.8 °C 1017.2 hPa Calm     82% 0 mm WeatherDisplay:10.37 W/m2 CLR
11:30 22.2 °C 19.2 °C 1017.2 hPa Calm     83% 0 mm WeatherDisplay:10.37 W/m2 CLR
11:35 22.4 °C 18.9 °C 1017.2 hPa Calm     81% 0 mm WeatherDisplay:10.37 W/m2 CLR
11:40 22.6 °C 19.1 °C 1017.2 hPa Calm     81% 0 mm WeatherDisplay:10.37 W/m2 CLR
11:45 22.7 °C 19.2 °C 1017.2 hPa Calm     81% 0 mm WeatherDisplay:10.37 W/m2 CLR
11:50 22.9 °C 19.3 °C 1017.2 hPa Calm     80% 0 mm WeatherDisplay:10.37 W/m2 CLR
11:55 23.2 °C 19.4 °C 1016.8 hPa Calm     79% 0 mm WeatherDisplay:10.37 W/m2 CLR
12:00 23.5 °C 19.8 °C 1016.8 hPa Calm     80% 0 mm WeatherDisplay:10.37 W/m2 CLR
12:05 23.7 °C 18.8 °C 1016.8 hPa Calm     74% 0 mm WeatherDisplay:10.37 W/m2 CLR
12:10 23.7 °C 18.8 °C 1016.8 hPa Calm     74% 0 mm WeatherDisplay:10.37 W/m2 CLR
12:15 23.8 °C 19.3 °C 1016.8 hPa Calm     76% 0 mm WeatherDisplay:10.37 W/m2 CLR
12:20 24 °C 19.7 °C 1016.8 hPa Calm     77% 0 mm WeatherDisplay:10.37 W/m2 CLR
12:25 24.2 °C 19.7 °C 1016.8 hPa Calm     76% 0 mm WeatherDisplay:10.37 W/m2 CLR
12:30 24.3 °C 19.3 °C 1016.5 hPa Calm     74% 0 mm WeatherDisplay:10.37 W/m2 CLR
12:35 24.4 °C 19.7 °C 1016.8 hPa NNW 1.9 km/h 0.3 km/h 75% 0 mm WeatherDisplay:10.37 W/m2 CLR
12:40 24.4 °C 19.9 °C 1016.8 hPa Calm     76% 0 mm WeatherDisplay:10.37 W/m2 CLR
12:45 24.6 °C 19.4 °C 1016.8 hPa Calm     73% 0 mm WeatherDisplay:10.37 W/m2 CLR
12:50 24.5 °C 19.1 °C 1016.8 hPa Calm     72% 0 mm WeatherDisplay:10.37 W/m2 CLR
12:55 24.5 °C 19.1 °C 1016.5 hPa Calm     72% 0 mm WeatherDisplay:10.37 W/m2 CLR
13:00 24.5 °C 19.6 °C 1016.5 hPa Calm     74% 0 mm WeatherDisplay:10.37 W/m2 CLR
13:05 24.4 °C 19.3 °C 1016.5 hPa Calm     73% 0 mm WeatherDisplay:10.37 W/m2 CLR
13:10 24.4 °C 19.1 °C 1016.5 hPa Calm     72% 0 mm WeatherDisplay:10.37 W/m2 CLR
13:15 24.4 °C 19.1 °C 1016.5 hPa Calm     72% 0 mm WeatherDisplay:10.37 W/m2 CLR
13:20 24.6 °C 19.4 °C 1016.5 hPa Calm     73% 0 mm WeatherDisplay:10.37 W/m2 CLR
13:25 24.6 °C 19.4 °C 1016.5 hPa Calm     73% 0 mm WeatherDisplay:10.37 W/m2 CLR
13:30 24.6 °C 19.4 °C 1016.1 hPa Calm     73% 0 mm WeatherDisplay:10.37 W/m2 CLR
13:35 24.6 °C 19.6 °C 1016.1 hPa Calm     74% 0 mm WeatherDisplay:10.37 W/m2 CLR
13:40 24.6 °C 19.6 °C 1016.1 hPa Calm     74% 0 mm WeatherDisplay:10.37 W/m2 CLR
13:45 24.6 °C 19.4 °C 1016.1 hPa Calm     73% 0 mm WeatherDisplay:10.37 W/m2 CLR
13:50 24.7 °C 19.7 °C 1016.1 hPa Calm     74% 0 mm WeatherDisplay:10.37 W/m2 CLR
13:55 24.7 °C 20 °C 1016.1 hPa NNW 5.6 km/h 0.3 km/h 75% 0 mm WeatherDisplay:10.37 W/m2 CLR
14:00 24.8 °C 19.6 °C 1016.1 hPa Calm     73% 0 mm WeatherDisplay:10.37 W/m2 CLR
14:05 24.7 °C 20.2 °C 1016.1 hPa Calm     76% 0 mm WeatherDisplay:10.37 W/m2 CLR
14:10 24.7 °C 19.8 °C 1016.1 hPa Calm     74% 0 mm WeatherDisplay:10.37 W/m2 CLR
14:15 24.8 °C 19.8 °C 1016.1 hPa Calm     74% 0 mm WeatherDisplay:10.37 W/m2 CLR
14:20 24.9 °C 19.9 °C 1016.1 hPa Calm     74% 0 mm WeatherDisplay:10.37 W/m2 CLR
14:25 25.1 °C 20.5 °C 1016.1 hPa Calm     76% 0 mm WeatherDisplay:10.37 W/m2 CLR
14:30 25.1 °C 20.1 °C 1015.8 hPa Calm     74% 0 mm WeatherDisplay:10.37 W/m2 CLR
14:35 25.1 °C 19.9 °C 1015.8 hPa Calm     73% 0 mm WeatherDisplay:10.37 W/m2 CLR
14:40 25.2 °C 20.6 °C 1015.8 hPa Calm     76% 0 mm WeatherDisplay:10.37 W/m2 CLR
14:45 25.1 °C 20.2 °C 1015.8 hPa Calm     74% 0 mm WeatherDisplay:10.37 W/m2 CLR
14:50 25.1 °C 20.7 °C 1015.8 hPa Calm     77% 0 mm WeatherDisplay:10.37 W/m2 CLR
14:55 25 °C 20.1 °C 1015.8 hPa Calm     74% 0 mm WeatherDisplay:10.37 W/m2 CLR
15:00 25.1 °C 20.7 °C 1015.8 hPa Calm     77% 0 mm WeatherDisplay:10.37 W/m2 CLR
15:05 25.1 °C 20.4 °C 1015.8 hPa Calm     75% 0 mm WeatherDisplay:10.37 W/m2 CLR
15:10 25.1 °C 20.8 °C 1015.8 hPa Calm     77% 0 mm WeatherDisplay:10.37 W/m2 CLR
15:15 25.1 °C 20.1 °C 1015.5 hPa Calm     74% 0 mm WeatherDisplay:10.37 W/m2 CLR
15:20 25 °C 20.1 °C 1015.5 hPa Calm     74% 0 mm WeatherDisplay:10.37 W/m2 CLR
15:25 25.1 °C 20.5 °C 1015.5 hPa Calm     76% 0 mm WeatherDisplay:10.37 W/m2 CLR
15:30 25 °C 20.1 °C 1015.5 hPa Calm     74% 0 mm WeatherDisplay:10.37 W/m2 CLR
15:35 24.9 °C 20.2 °C 1015.5 hPa Calm   19.3 km/h 75% 0 mm WeatherDisplay:10.37 W/m2 CLR
15:40 24.9 °C 20.2 °C 1015.1 hPa Calm     75% 0 mm WeatherDisplay:10.37 W/m2 CLR
15:45 24.9 °C 20.8 °C 1015.5 hPa Calm     78% 0 mm WeatherDisplay:10.37 W/m2 CLR
15:50 24.9 °C 20.8 °C 1015.1 hPa Calm     78% 0 mm WeatherDisplay:10.37 W/m2 CLR
15:55 24.9 °C 20.2 °C 1015.1 hPa SW 6.4 km/h 0.2 km/h 75% 0 mm WeatherDisplay:10.37 W/m2 CLR
16:00 25.1 °C 20.1 °C 1015.1 hPa Calm     74% 0 mm WeatherDisplay:10.37 W/m2 CLR
16:05 25.2 °C 20.4 °C 1015.1 hPa Calm     75% 0 mm WeatherDisplay:10.37 W/m2 CLR
16:10 25.3 °C 20.6 °C 1015.1 hPa Calm     75% 0 mm WeatherDisplay:10.37 W/m2 CLR
16:15 25.3 °C 20.1 °C 1015.1 hPa Calm     73% 0 mm WeatherDisplay:10.37 W/m2 CLR
16:20 25.3 °C 20.5 °C 1015.1 hPa Calm     75% 0 mm WeatherDisplay:10.37 W/m2 CLR
16:25 25.3 °C 20.1 °C 1015.1 hPa Calm     73% 0 mm WeatherDisplay:10.37 W/m2 CLR
16:30 25.3 °C 20.3 °C 1015.1 hPa Calm     74% 0 mm WeatherDisplay:10.37 W/m2 CLR
16:35 25.3 °C 20.6 °C 1015.1 hPa Calm     75% 0 mm WeatherDisplay:10.37 W/m2 CLR
16:40 25.3 °C 20.3 °C 1015.1 hPa Calm     74% 0 mm WeatherDisplay:10.37 W/m2 CLR
16:45 25.3 °C 20.9 °C 1015.1 hPa Calm     77% 0 mm WeatherDisplay:10.37 W/m2 CLR
16:50 25.1 °C 20.4 °C 1015.1 hPa Calm     75% 0 mm WeatherDisplay:10.37 W/m2 CLR
16:55 25.1 °C 20.5 °C 1015.1 hPa Calm     76% 0 mm WeatherDisplay:10.37 W/m2 CLR
17:00 24.9 °C 20.6 °C 1015.1 hPa Calm     77% 0 mm WeatherDisplay:10.37 W/m2 CLR
17:05 24.9 °C 20.6 °C 1015.1 hPa Calm     77% 0 mm WeatherDisplay:10.37 W/m2 CLR
17:10 24.8 °C 20.5 °C 1015.1 hPa Calm     77% 0 mm WeatherDisplay:10.37 W/m2 CLR
17:15 24.8 °C 20.3 °C 1015.1 hPa Calm     76% 0 mm WeatherDisplay:10.37 W/m2 CLR
17:20 24.8 °C 20.5 °C 1015.1 hPa Calm     77% 0 mm WeatherDisplay:10.37 W/m2 CLR
17:25 24.8 °C 20.7 °C 1015.1 hPa Calm     78% 0 mm WeatherDisplay:10.37 W/m2 CLR
17:30 24.8 °C 20.5 °C 1015.1 hPa Calm     77% 0 mm WeatherDisplay:10.37 W/m2 CLR
17:35 24.8 °C 20.7 °C 1015.1 hPa Calm     78% 0 mm WeatherDisplay:10.37 W/m2 CLR
17:40 24.7 °C 21 °C 1015.1 hPa Calm     80% 0 mm WeatherDisplay:10.37 W/m2 CLR
17:45 24.6 °C 21.1 °C 1015.1 hPa Calm     81% 0 mm WeatherDisplay:10.37 W/m2 CLR
17:50 24.4 °C 21.4 °C 1015.1 hPa Calm     83% 0 mm WeatherDisplay:10.37 W/m2 CLR
17:55 24.3 °C 21.2 °C 1015.1 hPa Calm     83% 0 mm WeatherDisplay:10.37 W/m2 CLR
18:00 24.2 °C 21.3 °C 1015.1 hPa Calm     84% 0 mm WeatherDisplay:10.37 W/m2 CLR
18:05 24.1 °C 21 °C 1015.5 hPa Calm     83% 0 mm WeatherDisplay:10.37 W/m2 CLR
18:10 23.9 °C 21.1 °C 1015.5 hPa Calm     84% 0 mm WeatherDisplay:10.37 W/m2 CLR
18:15 23.8 °C 20.8 °C 1015.5 hPa Calm     83% 0 mm WeatherDisplay:10.37 W/m2 CLR
18:20 23.7 °C 20.7 °C 1015.1 hPa Calm     83% 0 mm WeatherDisplay:10.37 W/m2 CLR
18:25 23.7 °C 20.8 °C 1015.5 hPa Calm     84% 0 mm WeatherDisplay:10.37 W/m2 CLR
18:30 23.6 °C 20.5 °C 1015.1 hPa Calm     83% 0 mm WeatherDisplay:10.37 W/m2 CLR
18:35 23.4 °C 20.6 °C 1015.1 hPa Calm     84% 0 mm WeatherDisplay:10.37 W/m2 CLR
18:40 23.3 °C 20.7 °C 1015.1 hPa Calm     85% 0 mm WeatherDisplay:10.37 W/m2 CLR
18:45 23.2 °C 20.5 °C 1015.5 hPa Calm     85% 0 mm WeatherDisplay:10.37 W/m2 CLR
18:50 23.1 °C 20.4 °C 1015.5 hPa Calm     85% 0 mm WeatherDisplay:10.37 W/m2 CLR
18:55 22.9 °C 20.5 °C 1015.5 hPa Calm     86% 0 mm WeatherDisplay:10.37 W/m2 CLR
19:00 22.8 °C 20.4 °C 1015.5 hPa Calm     86% 0 mm WeatherDisplay:10.37 W/m2 CLR
19:05 22.6 °C 20.2 °C 1015.5 hPa Calm     86% 0 mm WeatherDisplay:10.37 W/m2 CLR
19:10 22.4 °C 20.1 °C 1015.8 hPa Calm     87% 0 mm WeatherDisplay:10.37 W/m2 CLR
19:15 22.2 °C 20.1 °C 1015.5 hPa Calm     88% 0 mm WeatherDisplay:10.37 W/m2 CLR
19:20 21.9 °C 19.9 °C 1015.5 hPa Calm     88% 0 mm WeatherDisplay:10.37 W/m2 CLR
19:25 21.8 °C 19.9 °C 1015.5 hPa Calm     89% 0 mm WeatherDisplay:10.37 W/m2 CLR
19:30 21.5 °C 19.6 °C 1015.5 hPa Calm     89% 0 mm WeatherDisplay:10.37 W/m2 CLR
19:35 21.3 °C 19.6 °C 1015.8 hPa Calm     90% 0 mm WeatherDisplay:10.37 W/m2 CLR
19:40 21.2 °C 19.5 °C 1015.8 hPa Calm     90% 0 mm WeatherDisplay:10.37 W/m2 CLR
19:45 21 °C 19.5 °C 1015.8 hPa Calm     91% 0 mm WeatherDisplay:10.37 W/m2 CLR
19:50 20.8 °C 19.3 °C 1015.8 hPa Calm     91% 0 mm WeatherDisplay:10.37 W/m2 CLR
19:55 20.7 °C 19.4 °C 1015.8 hPa Calm     92% 0 mm WeatherDisplay:10.37 W/m2 CLR
20:00 20.6 °C 19.2 °C 1015.8 hPa Calm     92% 0 mm WeatherDisplay:10.37 W/m2 CLR
20:05 20.4 °C 19.3 °C 1015.8 hPa Calm     93% 0 mm WeatherDisplay:10.37 W/m2 CLR
20:10 20.3 °C 19.2 °C 1016.1 hPa Calm     93% 0 mm WeatherDisplay:10.37 W/m2 CLR
20:15 20.2 °C 19 °C 1016.1 hPa Calm     93% 0 mm WeatherDisplay:10.37 W/m2 CLR
20:20 20.1 °C 18.9 °C 1016.1 hPa Calm     93% 0 mm WeatherDisplay:10.37 W/m2 CLR
20:25 19.9 °C 18.9 °C 1016.1 hPa Calm     94% 0 mm WeatherDisplay:10.37 W/m2 CLR
20:30 19.8 °C 18.8 °C 1016.1 hPa Calm     94% 0 mm WeatherDisplay:10.37 W/m2 CLR
20:35 19.7 °C 18.7 °C 1016.1 hPa Calm     94% 0 mm WeatherDisplay:10.37 W/m2 CLR
20:40 19.7 °C 18.8 °C 1016.1 hPa Calm     95% 0 mm WeatherDisplay:10.37 W/m2 CLR
20:45 19.6 °C 18.8 °C 1016.1 hPa Calm     95% 0 mm WeatherDisplay:10.37 W/m2 CLR
20:50 19.6 °C 18.7 °C 1016.1 hPa Calm     95% 0 mm WeatherDisplay:10.37 W/m2 CLR
20:55 19.4 °C 18.6 °C 1016.5 hPa Calm     95% 0 mm WeatherDisplay:10.37 W/m2 CLR
21:00 19.3 °C 18.7 °C 1016.5 hPa Calm     96% 0 mm WeatherDisplay:10.37 W/m2 CLR
21:05 19.3 °C 18.6 °C 1016.5 hPa Calm     96% 0 mm WeatherDisplay:10.37 W/m2 CLR
21:10 19.2 °C 18.6 °C 1016.5 hPa Calm     96% 0 mm WeatherDisplay:10.37 W/m2 CLR
21:15 19.2 °C 18.5 °C 1016.8 hPa Calm     96% 0 mm WeatherDisplay:10.37 W/m2 CLR
21:20 19.1 °C 18.4 °C 1016.5 hPa Calm     96% 0 mm WeatherDisplay:10.37 W/m2 CLR
21:25 18.9 °C 18.3 °C 1016.5 hPa Calm     96% 0 mm WeatherDisplay:10.37 W/m2 CLR
21:30 18.9 °C 18.2 °C 1016.8 hPa Calm     96% 0 mm WeatherDisplay:10.37 W/m2 CLR
21:35 18.8 °C 18.3 °C 1016.8 hPa Calm     97% 0 mm WeatherDisplay:10.37 W/m2 CLR
21:40 18.8 °C 18.3 °C 1016.8 hPa Calm     97% 0 mm WeatherDisplay:10.37 W/m2 CLR
21:45 18.7 °C 18.2 °C 1016.8 hPa Calm     97% 0 mm WeatherDisplay:10.37 W/m2 CLR
21:50 18.7 °C 18.2 °C 1016.8 hPa Calm     97% 0 mm WeatherDisplay:10.37 W/m2 CLR
21:55 18.6 °C 18.1 °C 1016.8 hPa Calm     97% 0 mm WeatherDisplay:10.37 W/m2 CLR
22:00 18.6 °C 18.1 °C 1016.8 hPa Calm     97% 0 mm WeatherDisplay:10.37 W/m2 CLR
22:05 18.6 °C 18.1 °C 1016.8 hPa Calm     97% 0 mm WeatherDisplay:10.37 W/m2 CLR
22:10 18.5 °C 18 °C 1016.8 hPa Calm     97% 0 mm WeatherDisplay:10.37 W/m2 CLR
22:15 18.4 °C 17.9 °C 1016.8 hPa Calm     97% 0 mm WeatherDisplay:10.37 W/m2 CLR
22:20 18.4 °C 17.9 °C 1016.8 hPa Calm     97% 0 mm WeatherDisplay:10.37 W/m2 CLR
22:25 18.3 °C 17.8 °C 1016.8 hPa Calm     97% 0 mm WeatherDisplay:10.37 W/m2 CLR
22:30 18.2 °C 17.9 °C 1016.8 hPa Calm     98% 0 mm WeatherDisplay:10.37 W/m2 CLR
22:35 18.2 °C 17.9 °C 1017.2 hPa Calm     98% 0 mm WeatherDisplay:10.37 W/m2 CLR
22:40 18.2 °C 17.9 °C 1017.2 hPa Calm     98% 0 mm WeatherDisplay:10.37 W/m2 CLR
22:45 18.2 °C 17.8 °C 1017.2 hPa Calm     98% 0 mm WeatherDisplay:10.37 W/m2 CLR
22:50 18.1 °C 17.8 °C 1017.5 hPa Calm     98% 0 mm WeatherDisplay:10.37 W/m2 CLR
22:55 18.1 °C 17.7 °C 1017.5 hPa Calm     98% 0 mm WeatherDisplay:10.37 W/m2 CLR
23:00 18 °C 17.7 °C 1017.5 hPa Calm     98% 0 mm WeatherDisplay:10.37 W/m2 CLR
23:05 18 °C 17.7 °C 1017.5 hPa Calm     98% 0 mm WeatherDisplay:10.37 W/m2 CLR
23:10 17.9 °C 17.6 °C 1017.5 hPa Calm     98% 0 mm WeatherDisplay:10.37 W/m2 CLR
23:15 17.8 °C 17.5 °C 1017.5 hPa Calm     98% 0 mm WeatherDisplay:10.37 W/m2 CLR
23:20 17.8 °C 17.5 °C 1017.5 hPa Calm     98% 0 mm WeatherDisplay:10.37 W/m2 CLR
23:25 17.8 °C 17.4 °C 1017.5 hPa Calm     98% 0 mm WeatherDisplay:10.37 W/m2 CLR
23:30 17.7 °C 17.4 °C 1017.5 hPa Calm     98% 0 mm WeatherDisplay:10.37 W/m2 CLR
23:35 17.7 °C 17.4 °C 1017.5 hPa Calm     98% 0 mm WeatherDisplay:10.37 W/m2 CLR
23:40 17.7 °C 17.3 °C 1017.5 hPa Calm     98% 0 mm WeatherDisplay:10.37 W/m2 CLR
23:45 17.7 °C 17.3 °C 1017.5 hPa Calm     98% 0 mm WeatherDisplay:10.37 W/m2 CLR
23:50 17.7 °C 17.6 °C 1017.5 hPa Calm     99% 0 mm WeatherDisplay:10.37 W/m2 CLR
23:55 17.7 °C 17.6 °C 1017.5 hPa Calm     99% 0 mm WeatherDisplay:10.37 W/m2 CLR
Lake Wynonah, (Auburn) PA USA